createdAt,value
2022-10-23T00:01:47.226Z,70.44
2022-10-23T00:04:19.570Z,70.78
2022-10-23T00:06:48.803Z,70.64
2022-10-23T00:09:21.026Z,70.45
2022-10-23T00:11:50.967Z,70.34
2022-10-23T00:14:22.147Z,70.28
2022-10-23T00:16:50.664Z,70.82
2022-10-23T00:19:18.897Z,70.63
2022-10-23T00:21:46.700Z,70.58
2022-10-23T00:24:14.615Z,71.02
2022-10-23T00:26:43.080Z,70.86
2022-10-23T00:29:11.614Z,70.85
2022-10-23T00:31:39.774Z,70.71
2022-10-23T00:34:08.876Z,70.95
2022-10-23T00:36:38.150Z,71.11
2022-10-23T00:39:06.796Z,71.34
2022-10-23T00:41:34.927Z,71.01
2022-10-23T00:44:18.086Z,71.19
2022-10-23T00:46:46.366Z,70.96
2022-10-23T00:49:15.445Z,71.14
2022-10-23T00:51:53.572Z,71.36
2022-10-23T00:54:25.890Z,71.47
2022-10-23T00:56:58.915Z,71.29
2022-10-23T00:59:27.775Z,71.30
2022-10-23T01:01:58.856Z,71.60
2022-10-23T01:04:28.554Z,71.52
2022-10-23T01:07:28.715Z,71.29
2022-10-23T01:10:08.692Z,71.75
2022-10-23T01:12:42.470Z,71.89
2022-10-23T01:15:23.907Z,71.88
2022-10-23T01:18:04.402Z,71.55
2022-10-23T01:20:40.979Z,72.21
2022-10-23T01:23:30.966Z,72.19
2022-10-23T01:26:15.716Z,72.42
2022-10-23T01:29:01.897Z,72.06
2022-10-23T01:31:37.612Z,72.37
2022-10-23T01:34:14.510Z,72.41
2022-10-23T01:36:46.429Z,72.30
2022-10-23T01:39:23.770Z,72.09
2022-10-23T01:42:01.002Z,72.65
2022-10-23T01:44:36.552Z,72.20
2022-10-23T01:47:07.422Z,72.43
2022-10-23T01:49:38.195Z,72.26
2022-10-23T01:52:10.722Z,72.18
2022-10-23T01:54:43.804Z,72.14
2022-10-23T01:57:16.398Z,72.24
2022-10-23T01:59:49.906Z,72.31
2022-10-23T02:02:19.008Z,72.25
2022-10-23T02:04:57.117Z,72.34
2022-10-23T02:07:24.903Z,72.44
2022-10-23T02:09:53.219Z,72.99
2022-10-23T02:12:41.736Z,72.43
2022-10-23T02:15:28.181Z,72.72
2022-10-23T02:18:32.579Z,73.04
2022-10-23T02:21:14.205Z,73.12
2022-10-23T02:23:52.556Z,72.85
2022-10-23T02:26:39.804Z,72.78
2022-10-23T02:29:19.467Z,73.42
2022-10-23T02:31:51.506Z,73.31
2022-10-23T02:34:20.991Z,72.91
2022-10-23T02:36:51.534Z,72.98
2022-10-23T02:39:22.610Z,72.92
2022-10-23T02:42:06.836Z,73.36
2022-10-23T02:45:06.824Z,73.33
2022-10-23T02:47:53.643Z,73.32
2022-10-23T02:50:33.770Z,73.29
2022-10-23T02:53:33.375Z,74.18
2022-10-23T02:56:24.567Z,73.23
2022-10-23T02:59:10.345Z,73.21
2022-10-23T03:02:05.604Z,73.26
2022-10-23T03:04:37.988Z,73.48
2022-10-23T03:07:12.042Z,73.31
2022-10-23T03:09:40.791Z,73.15
2022-10-23T03:12:08.640Z,73.37
2022-10-23T03:14:38.968Z,74.00
2022-10-23T03:17:10.124Z,73.68
2022-10-23T03:19:41.912Z,73.60
2022-10-23T03:22:12.099Z,73.44
2022-10-23T03:24:40.257Z,73.28
2022-10-23T03:27:07.960Z,73.78
2022-10-23T03:29:36.385Z,73.87
2022-10-23T03:32:04.357Z,73.61
2022-10-23T03:34:32.201Z,73.48
2022-10-23T03:36:59.837Z,73.63
2022-10-23T03:39:29.378Z,73.67
2022-10-23T03:41:57.031Z,73.45
2022-10-23T03:44:24.739Z,73.63
2022-10-23T03:46:52.446Z,74.43
2022-10-23T03:49:20.244Z,74.13
2022-10-23T03:51:53.625Z,73.86
2022-10-23T03:54:27.263Z,74.02
2022-10-23T03:56:57.735Z,74.48
2022-10-23T03:59:30.418Z,74.63
2022-10-23T04:02:00.195Z,74.08
2022-10-23T04:04:29.540Z,73.86
2022-10-23T04:06:57.347Z,73.90
2022-10-23T04:09:25.183Z,73.99
2022-10-23T04:11:52.903Z,74.29
2022-10-23T04:14:24.213Z,74.00
2022-10-23T04:16:51.973Z,74.17
2022-10-23T04:19:19.915Z,74.09
2022-10-23T04:21:47.765Z,74.07
2022-10-23T04:24:15.553Z,74.40
2022-10-23T04:26:43.285Z,74.08
2022-10-23T04:29:10.941Z,74.35
2022-10-23T04:31:38.575Z,74.03
2022-10-23T04:36:38.798Z,74.18
2022-10-23T04:39:09.990Z,74.10
2022-10-23T04:41:40.456Z,74.16
2022-10-23T04:44:09.889Z,74.29
2022-10-23T04:46:37.778Z,74.25
2022-10-23T04:49:05.546Z,74.14
2022-10-23T04:51:34.929Z,74.32
2022-10-23T04:54:02.628Z,74.19
2022-10-23T04:56:30.324Z,74.23
2022-10-23T04:58:58.085Z,74.11
2022-10-23T05:01:25.891Z,74.06
2022-10-23T05:03:57.753Z,74.10
2022-10-23T05:06:25.505Z,74.16
2022-10-23T05:08:57.724Z,74.05
2022-10-23T05:11:25.455Z,74.13
2022-10-23T05:13:53.125Z,74.13
2022-10-23T05:16:39.510Z,74.28
2022-10-23T05:19:11.153Z,74.26
2022-10-23T05:21:41.576Z,74.06
2022-10-23T05:24:11.806Z,74.18
2022-10-23T05:26:39.549Z,74.45
2022-10-23T05:29:07.263Z,74.16
2022-10-23T05:31:36.790Z,74.33
2022-10-23T05:34:09.882Z,74.14
2022-10-23T05:36:41.755Z,74.19
2022-10-23T05:39:09.464Z,74.08
2022-10-23T05:41:37.347Z,74.06
2022-10-23T05:44:04.965Z,74.20
2022-10-23T05:46:32.685Z,74.12
2022-10-23T05:49:00.398Z,74.29
2022-10-23T05:51:29.612Z,74.15
2022-10-23T05:53:58.789Z,74.40
2022-10-23T05:56:29.222Z,74.42
2022-10-23T05:58:56.863Z,74.23
2022-10-23T06:01:26.104Z,74.19
2022-10-23T06:03:55.231Z,74.22
2022-10-23T06:06:22.870Z,74.63
2022-10-23T06:08:50.549Z,74.24
2022-10-23T06:11:20.309Z,74.09
2022-10-23T06:13:49.752Z,74.18
2022-10-23T06:16:24.657Z,74.25
2022-10-23T06:18:52.957Z,74.39
2022-10-23T06:21:20.820Z,74.43
2022-10-23T06:23:52.140Z,74.30
2022-10-23T06:26:21.417Z,74.28
2022-10-23T06:28:49.127Z,74.40
2022-10-23T06:31:20.672Z,74.31
2022-10-23T06:33:48.351Z,74.49
2022-10-23T06:36:15.970Z,74.31
2022-10-23T06:38:45.179Z,74.36
2022-10-23T06:41:18.071Z,74.31
2022-10-23T06:43:49.432Z,74.20
2022-10-23T06:46:19.300Z,74.31
2022-10-23T06:48:48.769Z,74.32
2022-10-23T06:51:18.745Z,74.38
2022-10-23T06:53:48.012Z,74.39
2022-10-23T06:56:15.725Z,74.43
2022-10-23T06:58:43.450Z,74.27
2022-10-23T07:01:14.152Z,74.40
2022-10-23T07:03:43.706Z,74.23
2022-10-23T07:06:13.084Z,74.19
2022-10-23T07:08:40.914Z,74.26
2022-10-23T07:11:11.816Z,74.31
2022-10-23T07:13:41.167Z,74.20
2022-10-23T07:16:15.563Z,74.28
2022-10-23T07:18:48.891Z,74.15
2022-10-23T07:21:18.327Z,74.18
2022-10-23T07:23:46.024Z,74.16
2022-10-23T07:26:16.877Z,74.17
2022-10-23T07:28:48.123Z,74.16
2022-10-23T07:31:15.916Z,74.14
2022-10-23T07:33:47.829Z,74.06
2022-10-23T07:36:15.618Z,74.12
2022-10-23T07:38:43.322Z,74.18
2022-10-23T07:41:13.741Z,74.17
2022-10-23T07:43:41.472Z,74.31
2022-10-23T07:46:10.236Z,74.31
2022-10-23T07:48:39.721Z,74.32
2022-10-23T07:51:14.433Z,74.23
2022-10-23T07:53:44.048Z,74.30
2022-10-23T07:56:26.297Z,74.22
2022-10-23T07:58:55.582Z,74.24
2022-10-23T08:01:38.582Z,74.15
2022-10-23T08:04:10.981Z,74.12
2022-10-23T08:06:38.713Z,74.11
2022-10-23T08:09:08.484Z,73.90
2022-10-23T08:11:37.892Z,73.94
2022-10-23T08:14:09.463Z,73.95
2022-10-23T08:16:39.519Z,73.89
2022-10-23T08:19:09.383Z,73.97
2022-10-23T08:21:38.970Z,74.06
2022-10-23T08:24:07.385Z,74.03
2022-10-23T08:26:35.043Z,73.89
2022-10-23T08:29:02.731Z,73.75
2022-10-23T08:31:32.048Z,73.81
2022-10-23T08:33:59.786Z,73.82
2022-10-23T08:36:29.941Z,73.78
2022-10-23T08:38:59.934Z,73.71
2022-10-23T08:41:43.713Z,73.77
2022-10-23T08:44:29.422Z,73.72
2022-10-23T08:47:24.859Z,73.43
2022-10-23T08:50:25.624Z,73.63
2022-10-23T08:53:09.391Z,73.57
2022-10-23T08:55:44.016Z,73.61
2022-10-23T08:58:30.898Z,73.37
2022-10-23T09:01:00.395Z,73.43
2022-10-23T09:03:29.600Z,73.36
2022-10-23T09:06:27.720Z,73.34
2022-10-23T09:09:04.569Z,73.20
2022-10-23T09:11:43.315Z,73.05
2022-10-23T09:14:36.234Z,72.89
2022-10-23T09:17:17.412Z,72.70
2022-10-23T09:19:48.002Z,72.69
2022-10-23T09:22:17.238Z,72.68
2022-10-23T09:24:44.882Z,72.35
2022-10-23T09:27:22.400Z,72.77
2022-10-23T09:29:54.017Z,72.66
2022-10-23T09:32:35.305Z,72.94
2022-10-23T09:35:05.441Z,72.93
2022-10-23T09:37:43.184Z,72.85
2022-10-23T09:40:22.798Z,72.72
2022-10-23T09:43:01.681Z,72.53
2022-10-23T09:45:35.294Z,72.53
2022-10-23T09:48:15.042Z,72.71
2022-10-23T09:51:06.373Z,72.80
2022-10-23T09:53:56.877Z,72.84
2022-10-23T09:56:36.694Z,72.62
2022-10-23T09:59:22.364Z,72.72
2022-10-23T10:01:58.431Z,72.71
2022-10-23T10:04:39.601Z,72.50
2022-10-23T10:07:23.999Z,72.48
2022-10-23T10:09:56.722Z,72.44
2022-10-23T10:12:48.508Z,72.45
2022-10-23T10:15:55.936Z,72.30
2022-10-23T10:18:43.337Z,72.27
2022-10-23T10:21:38.983Z,72.11
2022-10-23T10:24:42.861Z,72.13
2022-10-23T10:27:32.216Z,72.01
2022-10-23T10:30:21.345Z,72.00
2022-10-23T10:32:59.294Z,72.09
2022-10-23T10:35:41.257Z,71.99
2022-10-23T10:38:27.487Z,71.85
2022-10-23T10:41:37.723Z,71.87
2022-10-23T10:44:26.686Z,71.64
2022-10-23T10:47:23.708Z,71.31
2022-10-23T10:50:35.780Z,71.26
2022-10-23T10:53:26.960Z,71.54
2022-10-23T10:55:57.807Z,71.24
2022-10-23T10:58:34.360Z,71.40
2022-10-23T11:01:15.533Z,71.53
2022-10-23T11:03:54.294Z,71.15
2022-10-23T11:06:28.215Z,71.01
2022-10-23T11:09:03.985Z,70.91
2022-10-23T11:11:47.127Z,70.83
2022-10-23T11:14:22.304Z,70.74
2022-10-23T11:16:59.849Z,70.78
2022-10-23T11:19:59.876Z,70.88
2022-10-23T11:23:13.447Z,70.75
2022-10-23T11:25:48.792Z,70.57
2022-10-23T11:28:27.071Z,70.51
2022-10-23T11:31:00.273Z,70.43
2022-10-23T11:33:52.463Z,70.20
2022-10-23T11:36:41.333Z,70.05
2022-10-23T11:39:22.757Z,69.97
2022-10-23T11:41:58.286Z,69.85
2022-10-23T11:44:39.771Z,69.60
2022-10-23T11:47:41.678Z,69.39
2022-10-23T11:50:09.311Z,69.57
2022-10-23T11:53:09.411Z,69.41
2022-10-23T11:56:23.697Z,69.47
2022-10-23T11:58:56.434Z,69.26
2022-10-23T12:01:44.373Z,69.11
2022-10-23T12:04:15.301Z,69.21
2022-10-23T12:06:50.357Z,69.14
2022-10-23T12:09:26.632Z,68.84
2022-10-23T12:12:09.549Z,68.76
2022-10-23T12:14:47.856Z,67.98
2022-10-23T12:17:24.943Z,68.37
2022-10-23T12:20:24.103Z,68.36
2022-10-23T12:23:00.680Z,68.16
2022-10-23T12:25:54.595Z,67.84
2022-10-23T12:29:03.848Z,67.87
2022-10-23T12:31:48.040Z,67.98
2022-10-23T12:34:45.697Z,68.09
2022-10-23T12:37:44.280Z,67.93
2022-10-23T12:40:15.508Z,67.74
2022-10-23T12:42:53.982Z,67.71
2022-10-23T12:45:52.139Z,67.67
2022-10-23T12:48:24.697Z,67.45
2022-10-23T12:50:55.677Z,67.22
2022-10-23T12:53:24.454Z,67.06
2022-10-23T12:56:06.132Z,66.96
2022-10-23T12:58:37.454Z,66.53
2022-10-23T13:01:09.556Z,65.92
2022-10-23T13:03:41.082Z,65.92
2022-10-23T13:06:12.954Z,66.00
2022-10-23T13:08:44.477Z,66.28
2022-10-23T13:11:19.019Z,66.30
2022-10-23T13:13:51.021Z,66.09
2022-10-23T13:16:24.676Z,65.91
2022-10-23T13:18:54.567Z,65.75
2022-10-23T13:21:29.551Z,65.90
2022-10-23T13:23:57.322Z,65.77
2022-10-23T13:26:47.966Z,65.56
2022-10-23T13:29:19.376Z,65.29
2022-10-23T13:31:50.331Z,65.27
2022-10-23T13:34:28.586Z,65.19
2022-10-23T13:37:02.428Z,64.98
2022-10-23T13:39:34.576Z,65.24
2022-10-23T13:42:13.215Z,64.96
2022-10-23T13:44:42.010Z,64.92
2022-10-23T13:47:16.030Z,64.89
2022-10-23T13:49:43.789Z,64.82
2022-10-23T13:52:14.152Z,64.52
2022-10-23T13:54:43.671Z,64.51
2022-10-23T13:57:16.339Z,64.49
2022-10-23T13:59:44.326Z,64.28
2022-10-23T14:02:21.613Z,64.25
2022-10-23T14:04:51.979Z,64.12
2022-10-23T14:07:22.755Z,63.86
2022-10-23T14:09:50.697Z,63.87
2022-10-23T14:12:19.439Z,63.91
2022-10-23T14:14:52.222Z,63.83
2022-10-23T14:17:23.432Z,63.83
2022-10-23T14:19:51.170Z,63.89
2022-10-23T14:22:18.864Z,63.70
2022-10-23T14:24:46.597Z,63.74
2022-10-23T14:27:14.291Z,63.59
2022-10-23T14:29:42.147Z,63.56
2022-10-23T14:32:13.190Z,63.47
2022-10-23T14:34:50.223Z,63.45
2022-10-23T14:37:23.885Z,63.42
2022-10-23T14:39:51.705Z,63.33
2022-10-23T14:42:19.455Z,63.25
2022-10-23T14:44:50.471Z,63.21
2022-10-23T14:47:19.876Z,63.16
2022-10-23T14:49:52.292Z,63.33
2022-10-23T14:52:20.123Z,63.38
2022-10-23T14:54:47.801Z,63.13
2022-10-23T14:57:18.187Z,63.20
2022-10-23T14:59:45.910Z,63.09
2022-10-23T15:02:16.096Z,63.10
2022-10-23T15:04:43.949Z,63.29
2022-10-23T15:07:11.700Z,63.30
2022-10-23T15:09:42.261Z,63.23
2022-10-23T15:12:09.944Z,63.19
2022-10-23T15:14:37.691Z,63.32
2022-10-23T15:17:12.992Z,63.16
2022-10-23T15:19:42.674Z,63.16
2022-10-23T15:22:10.687Z,62.98
2022-10-23T15:24:38.387Z,62.82
2022-10-23T15:27:06.307Z,63.02
2022-10-23T15:29:34.021Z,63.19
2022-10-23T15:32:01.832Z,63.43
2022-10-23T15:34:33.643Z,63.28
2022-10-23T15:37:02.066Z,63.39
2022-10-23T15:39:35.983Z,63.36
2022-10-23T15:42:07.710Z,63.36
2022-10-23T15:44:35.518Z,63.25
2022-10-23T15:47:03.713Z,63.33
2022-10-23T15:49:32.165Z,63.33
2022-10-23T15:52:04.935Z,63.29
2022-10-23T15:54:33.471Z,63.34
2022-10-23T15:57:05.087Z,63.46
2022-10-23T15:59:32.959Z,63.36
2022-10-23T16:02:01.274Z,63.48
2022-10-23T16:04:31.435Z,63.55
2022-10-23T16:07:02.575Z,63.62
2022-10-23T16:09:30.279Z,63.75
2022-10-23T16:11:57.935Z,63.81
2022-10-23T16:14:25.704Z,63.68
2022-10-23T16:16:53.430Z,63.66
2022-10-23T16:19:21.161Z,63.69
2022-10-23T16:21:48.829Z,63.74
2022-10-23T16:24:16.647Z,64.06
2022-10-23T16:26:50.831Z,63.80
2022-10-23T16:29:23.017Z,63.80
2022-10-23T16:31:51.939Z,63.92
2022-10-23T16:34:23.525Z,63.92
2022-10-23T16:36:51.276Z,64.01
2022-10-23T16:39:20.522Z,63.96
2022-10-23T16:41:48.300Z,64.05
2022-10-23T16:44:16.035Z,64.02
2022-10-23T16:46:44.275Z,64.11
2022-10-23T16:49:17.328Z,64.10
2022-10-23T16:51:45.131Z,64.07
2022-10-23T16:54:17.052Z,64.19
2022-10-23T16:56:45.694Z,64.18
2022-10-23T16:59:18.364Z,64.19
2022-10-23T17:01:46.157Z,64.23
2022-10-23T17:04:15.371Z,64.23
2022-10-23T17:06:43.113Z,64.34
2022-10-23T17:09:10.816Z,64.33
2022-10-23T17:11:42.243Z,64.33
2022-10-23T17:14:21.807Z,64.39
2022-10-23T17:16:55.456Z,64.43
2022-10-23T17:19:44.706Z,64.39
2022-10-23T17:22:17.210Z,64.50
2022-10-23T17:24:47.533Z,64.43
2022-10-23T17:27:18.589Z,64.44
2022-10-23T17:29:47.279Z,64.48
2022-10-23T17:32:15.758Z,64.53
2022-10-23T17:34:43.531Z,64.50
2022-10-23T17:37:15.487Z,64.57
2022-10-23T17:39:45.558Z,64.55
2022-10-23T17:42:13.346Z,64.53
2022-10-23T17:44:41.086Z,64.57
2022-10-23T17:47:08.758Z,64.64
2022-10-23T17:49:36.501Z,64.66
2022-10-23T17:52:04.530Z,64.77
2022-10-23T17:54:32.300Z,64.78
2022-10-23T17:57:00.479Z,64.72
2022-10-23T17:59:34.470Z,64.80
2022-10-23T18:02:02.273Z,64.88
2022-10-23T18:04:30.571Z,64.85
2022-10-23T18:06:59.292Z,64.84
2022-10-23T18:09:27.039Z,64.93
2022-10-23T18:11:54.730Z,64.92
2022-10-23T18:14:29.651Z,65.03
2022-10-23T18:17:04.080Z,65.03
2022-10-23T18:19:31.726Z,65.08
2022-10-23T18:21:59.429Z,65.20
2022-10-23T18:24:27.365Z,65.31
2022-10-23T18:26:55.129Z,65.25
2022-10-23T18:29:23.077Z,65.25
2022-10-23T18:31:50.800Z,65.26
2022-10-23T18:34:23.547Z,65.38
2022-10-23T18:36:56.002Z,65.38
2022-10-23T18:39:25.940Z,65.52
2022-10-23T18:41:57.550Z,65.54
2022-10-23T18:44:29.824Z,65.44
2022-10-23T18:47:02.054Z,65.62
2022-10-23T18:49:30.315Z,65.57
2022-10-23T18:52:01.939Z,65.64
2022-10-23T18:54:29.897Z,65.72
2022-10-23T18:56:57.700Z,65.73
2022-10-23T18:59:25.403Z,65.96
2022-10-23T19:01:53.450Z,65.90
2022-10-23T19:04:22.579Z,65.89
2022-10-23T19:06:53.151Z,66.00
2022-10-23T19:09:21.657Z,66.09
2022-10-23T19:11:50.267Z,65.89
2022-10-23T19:14:18.078Z,65.98
2022-10-23T19:17:08.425Z,66.09
2022-10-23T19:19:43.971Z,66.13
2022-10-23T19:22:15.794Z,66.22
2022-10-23T19:25:15.101Z,66.32
2022-10-23T19:27:47.250Z,66.46
2022-10-23T19:30:22.798Z,66.47
2022-10-23T19:32:54.811Z,66.38
2022-10-23T19:35:25.448Z,66.58
2022-10-23T19:37:53.318Z,66.39
2022-10-23T19:40:21.172Z,66.51
2022-10-23T19:42:48.947Z,66.73
2022-10-23T19:45:16.721Z,66.80
2022-10-23T19:47:46.377Z,66.86
2022-10-23T19:50:17.754Z,67.03
2022-10-23T19:52:45.563Z,67.02
2022-10-23T19:55:13.433Z,66.88
2022-10-23T19:57:41.658Z,67.05
2022-10-23T20:00:14.813Z,67.12
2022-10-23T20:02:43.080Z,67.26
2022-10-23T20:05:15.649Z,67.19
2022-10-23T20:07:47.598Z,67.13
2022-10-23T20:10:17.269Z,67.17
2022-10-23T20:12:51.540Z,67.21
2022-10-23T20:15:25.105Z,67.20
2022-10-23T20:17:52.815Z,67.24
2022-10-23T20:20:25.157Z,67.52
2022-10-23T20:22:55.303Z,67.44
2022-10-23T20:25:31.751Z,67.53
2022-10-23T20:28:00.105Z,67.57
2022-10-23T20:30:32.678Z,67.69
2022-10-23T20:33:01.071Z,67.48
2022-10-23T20:35:28.979Z,67.50
2022-10-23T20:38:01.585Z,67.77
2022-10-23T20:40:29.586Z,67.77
2022-10-23T20:42:57.362Z,67.83
2022-10-23T20:45:25.476Z,67.79
2022-10-23T20:47:53.594Z,67.82
2022-10-23T20:50:24.589Z,67.90
2022-10-23T20:52:52.434Z,67.89
2022-10-23T20:55:20.128Z,68.08
2022-10-23T20:57:48.633Z,68.08
2022-10-23T21:00:17.795Z,68.05
2022-10-23T21:02:47.228Z,68.11
2022-10-23T21:05:17.773Z,68.05
2022-10-23T21:07:45.440Z,68.11
2022-10-23T21:10:13.249Z,68.19
2022-10-23T21:12:41.430Z,68.21
2022-10-23T21:15:10.457Z,68.21
2022-10-23T21:17:40.993Z,68.27
2022-10-23T21:20:09.161Z,68.29
2022-10-23T21:22:37.110Z,68.36
2022-10-23T21:25:06.434Z,68.35
2022-10-23T21:27:34.585Z,68.44
2022-10-23T21:30:02.392Z,68.49
2022-10-23T21:32:30.810Z,68.49
2022-10-23T21:34:58.597Z,68.57
2022-10-23T21:37:26.461Z,68.50
2022-10-23T21:39:54.253Z,68.55
2022-10-23T21:42:22.055Z,68.57
2022-10-23T21:44:49.912Z,68.58
2022-10-23T21:47:17.633Z,68.70
2022-10-23T21:49:45.489Z,68.72
2022-10-23T21:52:17.628Z,68.82
2022-10-23T21:54:55.345Z,68.85
2022-10-23T21:57:22.990Z,68.92
2022-10-23T21:59:50.719Z,68.95
2022-10-23T22:02:19.223Z,69.17
2022-10-23T22:04:47.590Z,68.96
2022-10-23T22:07:15.359Z,68.93
2022-10-23T22:09:44.835Z,68.96
2022-10-23T22:12:12.758Z,69.36
2022-10-23T22:14:40.653Z,69.22
2022-10-23T22:17:09.961Z,69.28
2022-10-23T22:19:37.637Z,69.50
2022-10-23T22:22:05.340Z,69.43
2022-10-23T22:24:33.158Z,69.28
2022-10-23T22:27:01.357Z,69.47
2022-10-23T22:29:30.449Z,69.70
2022-10-23T22:31:59.294Z,69.57
2022-10-23T22:37:18.356Z,69.80
2022-10-23T22:39:46.148Z,69.55
2022-10-23T22:42:14.577Z,69.65
2022-10-23T22:44:42.257Z,69.78
2022-10-23T22:47:10.048Z,69.78
2022-10-23T22:49:39.029Z,69.83
2022-10-23T22:52:07.627Z,69.78
2022-10-23T22:54:35.351Z,69.75
2022-10-23T22:57:03.016Z,69.81
2022-10-23T22:59:31.555Z,69.86
2022-10-23T23:01:59.401Z,70.05
2022-10-23T23:04:43.333Z,70.15
2022-10-23T23:07:12.953Z,70.10
2022-10-23T23:09:43.918Z,70.28
2022-10-23T23:12:15.215Z,70.42
2022-10-23T23:14:43.730Z,70.24
2022-10-23T23:17:12.466Z,70.39
2022-10-23T23:19:41.095Z,70.48
2022-10-23T23:22:08.846Z,70.49
2022-10-23T23:24:36.595Z,70.42
2022-10-23T23:27:04.361Z,70.44
2022-10-23T23:29:32.377Z,70.49
2022-10-23T23:32:00.978Z,70.46
2022-10-23T23:34:29.508Z,70.46
2022-10-23T23:36:57.979Z,70.50
2022-10-23T23:39:26.997Z,70.59
2022-10-23T23:41:54.741Z,70.69
2022-10-23T23:44:22.562Z,71.01
2022-10-23T23:46:50.181Z,71.23
2022-10-23T23:49:17.844Z,71.00
2022-10-23T23:51:45.557Z,70.78
2022-10-23T23:54:13.390Z,70.84
2022-10-23T23:56:43.727Z,70.97
2022-10-23T23:59:11.392Z,71.14
